createdAt,value
2022-12-11T00:00:06.424Z,-1.69
2022-12-11T00:02:32.825Z,-1.51
2022-12-11T00:04:59.280Z,-1.39
2022-12-11T00:07:25.751Z,-1.22
2022-12-11T00:09:52.087Z,-1.09
2022-12-11T00:12:18.462Z,-0.89
2022-12-11T00:14:44.875Z,-0.83
2022-12-11T00:17:11.346Z,-0.77
2022-12-11T00:19:37.796Z,-0.67
2022-12-11T00:22:04.245Z,-0.65
2022-12-11T00:24:30.855Z,-0.63
2022-12-11T00:26:57.285Z,-0.73
2022-12-11T00:29:23.632Z,-0.79
2022-12-11T00:31:50.249Z,-0.85
2022-12-11T00:34:16.739Z,-0.80
2022-12-11T00:36:43.120Z,-0.84
2022-12-11T00:39:09.600Z,-0.79
2022-12-11T00:41:36.170Z,-0.68
2022-12-11T00:44:02.757Z,-0.78
2022-12-11T00:46:29.193Z,-0.83
2022-12-11T00:48:55.643Z,-0.89
2022-12-11T00:51:22.097Z,-0.87
2022-12-11T00:53:48.604Z,-0.91
2022-12-11T00:56:20.488Z,-0.92
2022-12-11T00:58:48.019Z,-1.04
2022-12-11T01:01:18.792Z,-0.94
2022-12-11T01:03:45.587Z,-0.94
2022-12-11T01:06:17.703Z,-0.88
2022-12-11T01:08:45.080Z,-0.90
2022-12-11T01:11:13.892Z,-1.03
2022-12-11T01:13:41.189Z,-1.05
2022-12-11T01:16:14.124Z,-1.12
2022-12-11T01:18:40.724Z,-1.09
2022-12-11T01:21:09.019Z,-1.14
2022-12-11T01:23:35.419Z,-1.16
2022-12-11T01:26:12.778Z,-1.25
2022-12-11T01:28:39.843Z,-1.27
2022-12-11T01:31:18.919Z,-1.22
2022-12-11T01:33:45.492Z,-1.13
2022-12-11T01:36:18.044Z,-1.09
2022-12-11T01:38:45.642Z,-0.93
2022-12-11T01:41:12.503Z,-0.96
2022-12-11T01:44:03.801Z,-0.95
2022-12-11T01:46:32.519Z,-0.86
2022-12-11T01:49:00.924Z,-0.71
2022-12-11T01:51:31.938Z,-0.78
2022-12-11T01:54:02.314Z,-0.95
2022-12-11T01:56:33.685Z,-0.90
2022-12-11T01:59:07.031Z,-0.86
2022-12-11T02:02:23.307Z,-0.51
2022-12-11T02:04:50.006Z,-0.80
2022-12-11T02:07:16.400Z,-0.74
2022-12-11T02:09:45.837Z,-0.58
2022-12-11T02:12:41.374Z,-0.56
2022-12-11T02:15:16.743Z,-0.66
2022-12-11T02:17:59.959Z,-0.72
2022-12-11T02:20:31.383Z,-0.73
2022-12-11T02:23:12.783Z,-0.70
2022-12-11T02:25:54.348Z,-0.79
2022-12-11T02:28:29.776Z,-0.84
2022-12-11T02:31:05.326Z,-0.76
2022-12-11T02:33:39.922Z,-0.81
2022-12-11T02:36:09.835Z,-0.82
2022-12-11T02:38:41.737Z,-0.80
2022-12-11T02:41:11.493Z,-0.84
2022-12-11T02:43:39.672Z,-0.78
2022-12-11T02:46:08.229Z,-0.80
2022-12-11T02:48:37.080Z,-0.77
2022-12-11T02:51:06.133Z,-0.85
2022-12-11T02:53:35.285Z,-0.88
2022-12-11T02:56:26.778Z,-0.99
2022-12-11T02:59:03.480Z,-0.97
2022-12-11T03:01:30.171Z,-1.07
2022-12-11T03:03:58.213Z,-1.10
2022-12-11T03:06:32.195Z,-1.26
2022-12-11T03:08:58.675Z,-1.29
2022-12-11T03:11:25.167Z,-1.26
2022-12-11T03:13:53.563Z,-1.33
2022-12-11T03:16:29.732Z,-1.45
2022-12-11T03:19:27.778Z,-1.58
2022-12-11T03:22:02.563Z,-1.60
2022-12-11T03:24:40.805Z,-1.63
2022-12-11T03:27:13.003Z,-1.63
2022-12-11T03:29:45.304Z,-1.67
2022-12-11T03:32:22.938Z,-1.72
2022-12-11T03:35:31.516Z,-1.69
2022-12-11T03:38:02.979Z,-1.63
2022-12-11T03:40:33.208Z,-1.69
2022-12-11T03:43:00.502Z,-1.77
2022-12-11T03:45:29.412Z,-1.83
2022-12-11T03:47:59.535Z,-1.75
2022-12-11T03:50:30.615Z,-1.79
2022-12-11T03:52:58.029Z,-1.75
2022-12-11T03:55:25.451Z,-1.75
2022-12-11T03:57:51.956Z,-1.81
2022-12-11T04:00:20.617Z,-1.77
2022-12-11T04:03:12.913Z,-1.67
2022-12-11T04:05:51.179Z,-1.89
2022-12-11T04:08:22.811Z,-1.86
2022-12-11T04:11:13.532Z,-1.83
2022-12-11T04:13:41.167Z,-1.98
2022-12-11T04:16:08.214Z,-1.97
2022-12-11T04:18:53.438Z,-1.92
2022-12-11T04:21:39.887Z,-1.85
2022-12-11T04:24:16.526Z,-1.89
2022-12-11T04:26:45.006Z,-1.77
2022-12-11T04:29:11.452Z,-1.74
2022-12-11T04:31:37.891Z,-1.71
2022-12-11T04:34:04.327Z,-1.60
2022-12-11T04:36:33.267Z,-1.57
2022-12-11T04:38:59.631Z,-1.56
2022-12-11T04:41:26.063Z,-1.51
2022-12-11T04:43:52.599Z,-1.55
2022-12-11T04:46:22.079Z,-1.47
2022-12-11T04:48:53.788Z,-1.43
2022-12-11T04:51:22.191Z,-0.96
2022-12-11T04:53:48.625Z,-0.98
2022-12-11T04:56:15.871Z,-0.92
2022-12-11T04:58:43.425Z,-1.03
2022-12-11T05:01:15.557Z,-1.16
2022-12-11T05:03:42.824Z,-1.02
2022-12-11T05:06:10.839Z,-0.99
2022-12-11T05:08:40.217Z,-0.90
2022-12-11T05:11:09.565Z,-0.98
2022-12-11T05:13:36.300Z,-1.10
2022-12-11T05:16:07.071Z,-1.09
2022-12-11T05:18:33.702Z,-1.18
2022-12-11T05:21:06.522Z,-1.16
2022-12-11T05:23:33.728Z,-1.19
2022-12-11T05:26:06.729Z,-1.04
2022-12-11T05:28:36.095Z,-1.06
2022-12-11T05:31:05.888Z,-1.23
2022-12-11T05:33:32.450Z,-1.25
2022-12-11T05:35:58.909Z,-1.24
2022-12-11T05:38:25.590Z,-1.30
2022-12-11T05:41:00.093Z,-1.32
2022-12-11T05:43:28.352Z,-1.38
2022-12-11T05:45:56.001Z,-1.50
2022-12-11T05:48:22.640Z,-1.50
2022-12-11T05:51:00.398Z,-1.54
2022-12-11T05:53:27.700Z,-1.21
2022-12-11T05:55:54.378Z,-1.19
2022-12-11T05:58:21.416Z,-1.31
2022-12-11T06:00:48.077Z,-1.42
2022-12-11T06:03:14.634Z,-1.28
2022-12-11T06:05:42.345Z,-1.44
2022-12-11T06:08:09.069Z,-1.38
2022-12-11T06:10:35.531Z,-0.94
2022-12-11T06:13:01.965Z,-1.19
2022-12-11T06:15:28.288Z,-1.52
2022-12-11T06:17:54.685Z,-1.61
2022-12-11T06:20:21.096Z,-1.28
2022-12-11T06:22:47.650Z,-0.74
2022-12-11T06:25:14.185Z,-1.02
2022-12-11T06:27:40.748Z,-0.98
2022-12-11T06:30:08.006Z,-1.07
2022-12-11T06:32:34.361Z,-1.03
2022-12-11T06:35:00.760Z,-1.00
2022-12-11T06:37:27.085Z,-1.22
2022-12-11T06:39:53.448Z,-1.18
2022-12-11T06:42:19.811Z,-1.11
2022-12-11T06:44:46.207Z,-1.24
2022-12-11T06:47:12.616Z,-1.10
2022-12-11T06:49:39.041Z,-1.16
2022-12-11T06:52:06.201Z,-1.25
2022-12-11T06:54:32.711Z,-1.02
2022-12-11T06:56:59.057Z,-1.06
2022-12-11T06:59:25.403Z,-1.09
2022-12-11T07:01:51.836Z,-1.14
2022-12-11T07:04:18.187Z,-1.25
2022-12-11T07:06:44.564Z,-1.29
2022-12-11T07:09:11.056Z,-1.35
2022-12-11T07:11:37.412Z,-1.36
2022-12-11T07:14:03.864Z,-1.26
2022-12-11T07:16:30.268Z,-0.65
2022-12-11T07:18:56.604Z,-0.80
2022-12-11T07:21:23.140Z,-0.89
2022-12-11T07:23:50.206Z,-1.06
2022-12-11T07:26:19.697Z,-1.15
2022-12-11T07:28:46.388Z,-1.18
2022-12-11T07:31:15.377Z,-1.24
2022-12-11T07:33:42.706Z,-1.23
2022-12-11T07:36:11.308Z,-1.21
2022-12-11T07:38:37.792Z,-1.22
2022-12-11T07:41:06.359Z,-0.78
2022-12-11T07:43:33.992Z,-0.99
2022-12-11T07:46:02.307Z,-0.95
2022-12-11T07:48:28.731Z,-1.00
2022-12-11T07:50:55.084Z,-1.01
2022-12-11T07:53:21.492Z,-0.81
2022-12-11T07:55:47.852Z,-0.72
2022-12-11T07:58:14.394Z,-0.78
2022-12-11T08:00:40.810Z,-0.78
2022-12-11T08:03:07.137Z,-0.75
2022-12-11T08:05:33.520Z,-0.77
2022-12-11T08:07:59.948Z,-0.83
2022-12-11T08:10:26.416Z,-0.86
2022-12-11T08:12:52.827Z,-0.99
2022-12-11T08:15:19.175Z,-0.98
2022-12-11T08:17:45.692Z,-0.91
2022-12-11T08:20:12.105Z,-0.79
2022-12-11T08:22:38.583Z,-0.69
2022-12-11T08:25:05.583Z,-0.56
2022-12-11T08:27:31.944Z,-0.58
2022-12-11T08:29:58.343Z,-0.67
2022-12-11T08:32:24.687Z,-0.71
2022-12-11T08:34:51.604Z,-0.83
2022-12-11T08:37:17.927Z,-0.78
2022-12-11T08:39:46.905Z,-0.50
2022-12-11T08:42:13.331Z,-0.32
2022-12-11T08:44:39.708Z,-0.27
2022-12-11T08:47:06.170Z,-0.25
2022-12-11T08:49:34.641Z,-0.12
2022-12-11T08:52:02.569Z,-0.17
2022-12-11T08:54:28.965Z,-0.05
2022-12-11T08:56:58.173Z,-0.07
2022-12-11T08:59:25.647Z,-0.02
2022-12-11T09:01:52.320Z,-0.17
2022-12-11T09:04:19.348Z,-0.16
2022-12-11T09:06:45.739Z,0.10
2022-12-11T09:09:12.700Z,-0.14
2022-12-11T09:11:39.153Z,-0.23
2022-12-11T09:14:07.986Z,-0.22
2022-12-11T09:16:37.845Z,-0.30
2022-12-11T09:19:04.496Z,-0.25
2022-12-11T09:21:30.944Z,-0.27
2022-12-11T09:23:59.858Z,-0.21
2022-12-11T09:26:27.775Z,-0.13
2022-12-11T09:28:54.913Z,-0.04
2022-12-11T09:31:29.870Z,0.01
2022-12-11T09:33:59.521Z,-0.09
2022-12-11T09:36:26.599Z,0.02
2022-12-11T09:38:53.557Z,0.05
2022-12-11T09:41:22.864Z,0.27
2022-12-11T09:44:02.622Z,0.23
2022-12-11T09:46:33.783Z,0.20
2022-12-11T09:49:03.129Z,0.21
2022-12-11T09:51:35.576Z,0.42
2022-12-11T09:54:04.577Z,0.16
2022-12-11T09:56:42.413Z,0.14
2022-12-11T09:59:44.281Z,0.52
2022-12-11T10:02:28.369Z,0.58
2022-12-11T10:05:13.813Z,0.59
2022-12-11T10:07:49.401Z,0.45
2022-12-11T10:10:58.604Z,0.56
2022-12-11T10:13:51.279Z,0.57
2022-12-11T10:16:37.366Z,0.64
2022-12-11T10:19:04.159Z,0.83
2022-12-11T10:21:40.053Z,0.76
2022-12-11T10:25:07.615Z,0.73
2022-12-11T10:27:23.153Z,0.85
2022-12-11T10:30:12.853Z,0.99
2022-12-11T10:33:11.503Z,1.00
2022-12-11T10:35:47.686Z,0.91
2022-12-11T10:38:17.635Z,0.95
2022-12-11T10:40:55.698Z,1.11
2022-12-11T10:43:52.261Z,1.11
2022-12-11T10:46:24.346Z,1.05
2022-12-11T10:48:53.595Z,1.23
2022-12-11T10:51:33.240Z,1.08
2022-12-11T10:54:27.536Z,1.15
2022-12-11T10:56:54.808Z,0.91
2022-12-11T10:59:33.018Z,1.01
2022-12-11T11:02:00.022Z,1.18
2022-12-11T11:04:37.128Z,1.03
2022-12-11T11:07:16.761Z,1.26
2022-12-11T11:09:43.407Z,1.42
2022-12-11T11:12:20.584Z,1.13
2022-12-11T11:14:47.104Z,1.21
2022-12-11T11:17:16.489Z,1.35
2022-12-11T11:19:47.037Z,1.35
2022-12-11T11:22:17.332Z,1.37
2022-12-11T11:24:52.799Z,1.33
2022-12-11T11:27:35.639Z,1.51
2022-12-11T11:30:08.193Z,1.60
2022-12-11T11:32:41.067Z,1.58
2022-12-11T11:35:11.471Z,1.57
2022-12-11T11:37:40.568Z,1.57
2022-12-11T11:40:22.359Z,1.65
2022-12-11T11:43:16.272Z,1.85
2022-12-11T11:45:57.596Z,1.75
2022-12-11T11:48:45.899Z,1.58
2022-12-11T11:51:21.712Z,1.44
2022-12-11T11:53:51.284Z,1.36
2022-12-11T11:56:27.177Z,1.45
2022-12-11T11:59:02.572Z,1.48
2022-12-11T12:01:29.608Z,1.49
2022-12-11T12:03:56.605Z,1.70
2022-12-11T12:06:50.877Z,1.54
2022-12-11T12:09:44.098Z,1.64
2022-12-11T12:12:48.547Z,1.72
2022-12-11T12:15:31.446Z,1.57
2022-12-11T12:18:23.164Z,1.69
2022-12-11T12:21:03.029Z,1.56
2022-12-11T12:23:38.223Z,1.62
2022-12-11T12:26:29.412Z,1.76
2022-12-11T12:29:02.986Z,1.73
2022-12-11T12:31:32.598Z,1.65
2022-12-11T12:34:10.401Z,1.72
2022-12-11T12:36:51.659Z,1.95
2022-12-11T12:39:47.435Z,1.73
2022-12-11T12:42:38.880Z,1.64
2022-12-11T12:45:31.156Z,1.72
2022-12-11T12:47:57.592Z,1.37
2022-12-11T12:50:28.983Z,1.35
2022-12-11T12:52:56.825Z,1.33
2022-12-11T12:55:27.117Z,1.35
2022-12-11T12:58:00.344Z,1.31
2022-12-11T13:00:34.447Z,1.56
2022-12-11T13:03:16.184Z,1.84
2022-12-11T13:05:46.043Z,1.99
2022-12-11T13:08:13.511Z,1.84
2022-12-11T13:10:43.187Z,1.88
2022-12-11T13:13:34.435Z,1.56
2022-12-11T13:16:34.679Z,1.63
2022-12-11T13:19:01.803Z,1.38
2022-12-11T13:21:28.071Z,1.77
2022-12-11T13:23:55.483Z,1.81
2022-12-11T13:26:30.788Z,1.72
2022-12-11T13:28:58.237Z,1.64
2022-12-11T13:31:35.319Z,1.78
2022-12-11T13:34:16.019Z,2.04
2022-12-11T13:36:48.679Z,2.09
2022-12-11T13:39:22.808Z,1.87
2022-12-11T13:41:53.698Z,1.92
2022-12-11T13:44:30.597Z,1.89
2022-12-11T13:46:59.964Z,1.92
2022-12-11T13:49:35.363Z,1.88
2022-12-11T13:52:02.615Z,1.95
2022-12-11T13:54:30.846Z,1.84
2022-12-11T13:57:16.300Z,2.02
2022-12-11T13:59:48.119Z,1.92
2022-12-11T14:02:35.952Z,1.97
2022-12-11T14:05:11.101Z,1.98
2022-12-11T14:07:51.532Z,2.01
2022-12-11T14:10:22.558Z,1.99
2022-12-11T14:12:57.192Z,1.92
2022-12-11T14:15:24.024Z,1.81
2022-12-11T14:17:52.063Z,1.85
2022-12-11T14:20:27.883Z,1.84
2022-12-11T14:23:06.271Z,1.78
2022-12-11T14:25:32.705Z,2.01
2022-12-11T14:27:59.260Z,1.99
2022-12-11T14:30:33.004Z,1.96
2022-12-11T14:33:04.469Z,1.84
2022-12-11T14:35:40.216Z,1.93
2022-12-11T14:38:14.520Z,1.82
2022-12-11T14:40:45.148Z,1.97
2022-12-11T14:43:19.675Z,2.18
2022-12-11T14:45:49.743Z,2.08
2022-12-11T14:48:28.128Z,2.26
2022-12-11T14:50:58.889Z,2.32
2022-12-11T14:53:32.823Z,2.14
2022-12-11T14:56:04.873Z,2.02
2022-12-11T14:58:32.813Z,1.80
2022-12-11T15:01:05.844Z,1.99
2022-12-11T15:03:37.616Z,2.11
2022-12-11T15:06:25.699Z,1.99
2022-12-11T15:08:52.307Z,2.13
2022-12-11T15:11:18.916Z,1.96
2022-12-11T15:13:51.530Z,1.90
2022-12-11T15:16:18.858Z,1.93
2022-12-11T15:18:50.240Z,1.85
2022-12-11T15:21:17.332Z,1.87
2022-12-11T15:23:46.411Z,1.91
2022-12-11T15:26:12.864Z,1.90
2022-12-11T15:28:39.671Z,1.77
2022-12-11T15:31:22.815Z,1.80
2022-12-11T15:33:49.247Z,1.81
2022-12-11T15:36:34.896Z,1.74
2022-12-11T15:39:02.717Z,1.66
2022-12-11T15:41:33.109Z,1.82
2022-12-11T15:44:02.471Z,1.72
2022-12-11T15:46:29.881Z,1.72
2022-12-11T15:48:57.457Z,1.83
2022-12-11T15:51:25.186Z,1.61
2022-12-11T15:53:51.600Z,1.61
2022-12-11T15:56:18.272Z,1.56
2022-12-11T15:58:46.751Z,1.66
2022-12-11T16:01:13.184Z,1.63
2022-12-11T16:03:39.573Z,1.71
2022-12-11T16:06:06.169Z,1.80
2022-12-11T16:08:32.654Z,1.71
2022-12-11T16:10:59.150Z,1.69
2022-12-11T16:13:25.568Z,1.50
2022-12-11T16:15:53.599Z,1.54
2022-12-11T16:18:22.780Z,1.45
2022-12-11T16:20:50.706Z,1.36
2022-12-11T16:23:17.476Z,1.38
2022-12-11T16:25:45.344Z,1.41
2022-12-11T16:28:13.826Z,1.41
2022-12-11T16:30:40.801Z,1.52
2022-12-11T16:33:12.357Z,1.55
2022-12-11T16:35:39.788Z,1.70
2022-12-11T16:38:06.343Z,1.52
2022-12-11T16:40:32.780Z,1.43
2022-12-11T16:42:59.141Z,1.47
2022-12-11T16:45:26.421Z,1.53
2022-12-11T16:47:53.429Z,1.47
2022-12-11T16:50:20.120Z,1.48
2022-12-11T16:52:47.138Z,1.57
2022-12-11T16:55:14.747Z,1.52
2022-12-11T16:57:41.933Z,1.42
2022-12-11T17:00:11.983Z,1.51
2022-12-11T17:02:38.465Z,1.33
2022-12-11T17:05:05.159Z,1.31
2022-12-11T17:07:33.120Z,1.41
2022-12-11T17:10:01.742Z,1.60
2022-12-11T17:12:28.288Z,1.42
2022-12-11T17:14:55.807Z,1.47
2022-12-11T17:17:22.311Z,1.44
2022-12-11T17:19:48.670Z,1.46
2022-12-11T17:22:15.236Z,1.57
2022-12-11T17:24:41.620Z,1.58
2022-12-11T17:27:08.219Z,1.81
2022-12-11T17:29:34.635Z,1.70
2022-12-11T17:32:03.053Z,1.52
2022-12-11T17:34:34.620Z,1.35
2022-12-11T17:37:04.566Z,1.30
2022-12-11T17:39:31.215Z,1.30
2022-12-11T17:41:57.628Z,1.16
2022-12-11T17:44:24.425Z,1.24
2022-12-11T17:46:50.838Z,1.26
2022-12-11T17:49:17.219Z,1.43
2022-12-11T17:51:43.571Z,1.45
2022-12-11T17:54:10.014Z,1.36
2022-12-11T17:56:36.744Z,1.47
2022-12-11T17:59:03.439Z,1.66
2022-12-11T18:01:29.977Z,1.53
2022-12-11T18:03:56.785Z,1.57
2022-12-11T18:06:23.260Z,1.44
2022-12-11T18:08:49.635Z,1.38
2022-12-11T18:11:18.469Z,1.58
2022-12-11T18:13:45.852Z,1.42
2022-12-11T18:16:24.544Z,1.43
2022-12-11T18:18:52.062Z,1.47
2022-12-11T18:21:23.376Z,1.40
2022-12-11T18:23:50.585Z,1.28
2022-12-11T18:26:18.835Z,1.18
2022-12-11T18:28:46.019Z,1.08
2022-12-11T18:31:13.586Z,1.09
2022-12-11T18:33:42.323Z,1.10
2022-12-11T18:36:09.463Z,1.20
2022-12-11T18:38:35.861Z,1.27
2022-12-11T18:41:04.135Z,1.18
2022-12-11T18:43:30.487Z,1.02
2022-12-11T18:45:56.928Z,1.04
2022-12-11T18:48:23.405Z,1.05
2022-12-11T18:50:51.199Z,1.04
2022-12-11T18:53:18.538Z,1.22
2022-12-11T18:55:47.312Z,1.05
2022-12-11T18:58:15.828Z,1.17
2022-12-11T19:00:43.130Z,1.13
2022-12-11T19:03:10.436Z,1.15
2022-12-11T19:05:37.008Z,1.28
2022-12-11T19:08:03.697Z,1.22
2022-12-11T19:10:30.160Z,1.32
2022-12-11T19:12:56.551Z,1.39
2022-12-11T19:15:24.124Z,0.88
2022-12-11T19:17:50.846Z,0.85
2022-12-11T19:20:48.669Z,0.79
2022-12-11T19:23:04.487Z,0.88
2022-12-11T19:25:30.998Z,1.03
2022-12-11T19:27:57.825Z,1.02
2022-12-11T19:30:24.513Z,1.01
2022-12-11T19:32:51.125Z,1.25
2022-12-11T19:35:18.243Z,1.18
2022-12-11T19:37:44.883Z,1.29
2022-12-11T19:40:11.431Z,1.18
2022-12-11T19:42:37.811Z,1.19
2022-12-11T19:45:09.454Z,1.25
2022-12-11T19:47:36.047Z,1.29
2022-12-11T19:50:02.643Z,1.30
2022-12-11T19:52:29.007Z,1.29
2022-12-11T19:54:55.332Z,1.24
2022-12-11T19:57:21.675Z,1.30
2022-12-11T19:59:52.557Z,1.35
2022-12-11T20:02:21.869Z,1.45
2022-12-11T20:04:48.347Z,1.53
2022-12-11T20:07:14.731Z,1.47
2022-12-11T20:09:41.072Z,1.48
2022-12-11T20:12:10.295Z,1.34
2022-12-11T20:14:38.892Z,1.32
2022-12-11T20:17:14.249Z,1.30
2022-12-11T20:19:41.407Z,1.16
2022-12-11T20:22:09.025Z,1.10
2022-12-11T20:24:36.251Z,1.23
2022-12-11T20:27:02.971Z,1.19
2022-12-11T20:29:29.392Z,1.14
2022-12-11T20:31:55.822Z,1.13
2022-12-11T20:34:22.252Z,1.24
2022-12-11T20:36:48.758Z,1.61
2022-12-11T20:39:15.576Z,1.63
2022-12-11T20:41:42.023Z,1.47
2022-12-11T20:44:08.435Z,1.59
2022-12-11T20:46:34.795Z,1.62
2022-12-11T20:49:01.342Z,1.62
2022-12-11T20:51:28.965Z,1.52
2022-12-11T20:53:59.653Z,1.34
2022-12-11T20:56:29.427Z,1.75
2022-12-11T20:58:56.683Z,1.68
2022-12-11T21:01:25.222Z,1.43
2022-12-11T21:03:53.413Z,1.42
2022-12-11T21:06:30.637Z,1.22
2022-12-11T21:08:59.231Z,1.29
2022-12-11T21:11:25.852Z,1.14
2022-12-11T21:13:52.577Z,1.12
2022-12-11T21:16:19.724Z,0.85
2022-12-11T21:18:46.944Z,0.67
2022-12-11T21:21:13.386Z,0.52
2022-12-11T21:23:39.895Z,0.60
2022-12-11T21:26:06.655Z,0.57
2022-12-11T21:28:35.462Z,0.86
2022-12-11T21:31:05.193Z,0.93
2022-12-11T21:33:31.591Z,1.05
2022-12-11T21:35:59.895Z,1.00
2022-12-11T21:38:27.567Z,1.04
2022-12-11T21:40:55.371Z,1.02
2022-12-11T21:43:22.218Z,1.06
2022-12-11T21:46:04.950Z,1.05
2022-12-11T21:48:31.621Z,1.10
2022-12-11T21:51:06.355Z,1.10
2022-12-11T21:53:32.884Z,1.15
2022-12-11T21:55:59.252Z,1.07
2022-12-11T21:58:25.639Z,1.03
2022-12-11T22:00:52.086Z,0.93
2022-12-11T22:03:18.456Z,1.03
2022-12-11T22:05:45.050Z,1.01
2022-12-11T22:08:11.412Z,1.02
2022-12-11T22:10:37.848Z,1.00
2022-12-11T22:13:04.219Z,1.00
2022-12-11T22:15:30.604Z,1.07
2022-12-11T22:17:57.012Z,1.08
2022-12-11T22:20:23.423Z,1.09
2022-12-11T22:22:49.804Z,1.05
2022-12-11T22:25:16.269Z,1.02
2022-12-11T22:27:42.644Z,0.98
2022-12-11T22:30:09.904Z,0.91
2022-12-11T22:32:36.296Z,0.99
2022-12-11T22:35:03.768Z,0.92
2022-12-11T22:37:30.181Z,0.91
2022-12-11T22:39:56.544Z,0.93
2022-12-11T22:42:22.955Z,0.98
2022-12-11T22:44:49.379Z,0.92
2022-12-11T22:47:15.745Z,0.91
2022-12-11T22:49:42.229Z,0.84
2022-12-11T22:52:08.895Z,0.96
2022-12-11T22:54:38.773Z,1.11
2022-12-11T22:57:05.284Z,1.08
2022-12-11T22:59:31.617Z,1.02
2022-12-11T23:01:58.004Z,1.08
2022-12-11T23:04:24.508Z,0.98
2022-12-11T23:06:50.940Z,0.96
2022-12-11T23:09:17.452Z,0.92
2022-12-11T23:11:44.378Z,0.89
2022-12-11T23:14:16.940Z,0.83
2022-12-11T23:16:43.942Z,0.83
2022-12-11T23:19:11.248Z,0.91
2022-12-11T23:21:38.160Z,0.88
2022-12-11T23:24:05.133Z,0.81
2022-12-11T23:26:32.032Z,0.79
2022-12-11T23:28:59.524Z,0.73
2022-12-11T23:31:26.729Z,0.64
2022-12-11T23:33:53.454Z,0.71
2022-12-11T23:36:20.126Z,0.69
2022-12-11T23:38:52.566Z,0.69
2022-12-11T23:41:21.435Z,0.71
2022-12-11T23:43:47.836Z,0.80
2022-12-11T23:46:20.486Z,0.82
2022-12-11T23:48:46.973Z,0.76
2022-12-11T23:51:15.920Z,0.71
2022-12-11T23:53:43.214Z,0.68
2022-12-11T23:56:17.613Z,0.67
2022-12-11T23:58:44.040Z,0.65
